createdAt,value
2022-09-17T00:00:11.167Z,6.13
2022-09-17T00:02:56.041Z,5.82
2022-09-17T00:05:40.783Z,5.57
2022-09-17T00:08:25.693Z,6.00
2022-09-17T00:11:23.986Z,5.65
2022-09-17T00:14:14.720Z,5.50
2022-09-17T00:17:01.886Z,5.85
2022-09-17T00:19:46.835Z,5.15
2022-09-17T00:22:31.868Z,5.35
2022-09-17T00:25:16.957Z,5.35
2022-09-17T00:28:02.079Z,4.90
2022-09-17T00:30:46.961Z,5.63
2022-09-17T00:33:32.033Z,5.43
2022-09-17T00:36:19.889Z,5.00
2022-09-17T00:39:07.146Z,5.45
2022-09-17T00:41:52.072Z,5.03
2022-09-17T00:44:53.284Z,5.85
2022-09-17T00:47:43.759Z,5.65
2022-09-17T00:50:28.216Z,5.10
2022-09-17T00:53:18.646Z,5.43
2022-09-17T00:56:27.196Z,5.65
2022-09-17T00:59:12.099Z,5.32
2022-09-17T01:01:57.521Z,5.20
2022-09-17T01:04:42.782Z,5.28
2022-09-17T01:08:21.237Z,5.50
2022-09-17T01:11:16.279Z,5.30
2022-09-17T01:14:43.353Z,5.20
2022-09-17T01:17:53.212Z,5.50
2022-09-17T01:20:59.956Z,5.82
2022-09-17T01:24:03.106Z,5.20
2022-09-17T01:27:06.775Z,5.80
2022-09-17T01:29:54.436Z,5.70
2022-09-17T01:32:45.403Z,5.82
2022-09-17T01:35:42.830Z,5.90
2022-09-17T01:38:29.974Z,5.70
2022-09-17T01:41:24.436Z,6.13
2022-09-17T01:44:08.947Z,5.63
2022-09-17T01:47:20.935Z,6.30
2022-09-17T01:50:16.688Z,5.78
2022-09-17T01:53:03.913Z,6.30
2022-09-17T01:55:52.595Z,6.18
2022-09-17T01:58:45.381Z,6.70
2022-09-17T02:01:32.957Z,6.38
2022-09-17T02:04:48.141Z,6.00
2022-09-17T02:07:40.289Z,6.35
2022-09-17T02:10:40.241Z,5.95
2022-09-17T02:13:51.940Z,6.43
2022-09-17T02:16:45.940Z,6.15
2022-09-17T02:19:34.937Z,6.97
2022-09-17T02:22:39.198Z,6.53
2022-09-17T02:25:32.658Z,7.07
2022-09-17T02:28:43.399Z,6.35
2022-09-17T02:31:28.628Z,6.50
2022-09-17T02:34:14.311Z,7.18
2022-09-17T02:36:59.249Z,6.43
2022-09-17T02:39:44.028Z,7.22
2022-09-17T02:42:47.209Z,7.05
2022-09-17T02:45:40.913Z,7.47
2022-09-17T02:48:47.290Z,7.65
2022-09-17T02:52:07.819Z,7.07
2022-09-17T02:54:52.501Z,7.68
2022-09-17T02:57:46.848Z,7.55
2022-09-17T03:00:32.457Z,7.28
2022-09-17T03:03:37.336Z,8.52
2022-09-17T03:06:22.986Z,7.68
2022-09-17T03:09:09.140Z,7.80
2022-09-17T03:11:53.744Z,7.68
2022-09-17T03:14:38.660Z,8.10
2022-09-17T03:17:23.669Z,8.18
2022-09-17T03:20:09.212Z,7.80
2022-09-17T03:22:54.060Z,7.93
2022-09-17T03:25:39.134Z,7.90
2022-09-17T03:28:25.927Z,7.90
2022-09-17T03:31:11.167Z,7.55
2022-09-17T03:33:56.521Z,8.48
2022-09-17T03:36:41.109Z,7.43
2022-09-17T03:39:26.558Z,7.90
2022-09-17T03:42:11.296Z,8.02
2022-09-17T03:44:56.426Z,8.48
2022-09-17T03:47:40.948Z,7.70
2022-09-17T03:50:26.013Z,8.60
2022-09-17T03:53:10.929Z,8.10
2022-09-17T03:56:02.529Z,8.18
2022-09-17T03:58:47.359Z,8.75
2022-09-17T04:01:32.527Z,8.07
2022-09-17T04:04:17.354Z,8.45
2022-09-17T04:07:02.605Z,9.15
2022-09-17T04:09:47.517Z,10.30
2022-09-17T04:12:32.567Z,9.85
2022-09-17T04:15:17.326Z,10.75
2022-09-17T04:18:02.399Z,9.98
2022-09-17T04:20:47.301Z,10.10
2022-09-17T04:23:32.448Z,10.95
2022-09-17T04:26:17.568Z,11.32
2022-09-17T04:29:02.675Z,10.27
2022-09-17T04:31:47.604Z,11.25
2022-09-17T04:34:32.514Z,12.00
2022-09-17T04:37:19.117Z,12.98
2022-09-17T04:40:07.964Z,13.65
2022-09-17T04:42:54.870Z,12.95
2022-09-17T04:45:39.693Z,13.57
2022-09-17T04:48:24.958Z,11.38
2022-09-17T04:51:09.685Z,11.38
2022-09-17T04:53:55.014Z,9.73
2022-09-17T04:56:40.055Z,9.85
2022-09-17T04:59:24.996Z,10.02
2022-09-17T05:02:09.588Z,10.57
2022-09-17T05:04:56.285Z,9.70
2022-09-17T05:07:41.665Z,9.43
2022-09-17T05:10:26.667Z,9.82
2022-09-17T05:13:11.624Z,9.32
2022-09-17T05:15:56.665Z,9.10
2022-09-17T05:18:41.560Z,8.23
2022-09-17T05:21:26.503Z,8.48
2022-09-17T05:24:11.318Z,7.93
2022-09-17T05:26:56.377Z,8.32
2022-09-17T05:29:41.366Z,8.05
2022-09-17T05:32:26.486Z,7.80
2022-09-17T05:35:11.639Z,7.80
2022-09-17T05:38:04.798Z,8.00
2022-09-17T05:40:50.027Z,7.78
2022-09-17T05:43:34.629Z,7.80
2022-09-17T05:46:19.747Z,8.05
2022-09-17T05:49:04.487Z,7.82
2022-09-17T05:51:51.364Z,7.72
2022-09-17T05:54:36.296Z,7.75
2022-09-17T05:57:21.447Z,8.02
2022-09-17T06:00:06.543Z,8.43
2022-09-17T06:02:59.976Z,7.57
2022-09-17T06:05:57.554Z,7.57
2022-09-17T06:08:42.322Z,7.32
2022-09-17T06:11:27.866Z,7.15
2022-09-17T06:14:13.352Z,6.97
2022-09-17T06:16:58.230Z,7.03
2022-09-17T06:19:43.056Z,7.20
2022-09-17T06:22:28.083Z,7.28
2022-09-17T06:25:13.039Z,7.70
2022-09-17T06:27:57.993Z,6.72
2022-09-17T06:30:42.902Z,6.75
2022-09-17T06:33:29.454Z,6.35
2022-09-17T06:36:14.952Z,6.18
2022-09-17T06:38:59.909Z,6.72
2022-09-17T06:41:45.565Z,6.65
2022-09-17T06:44:30.298Z,6.40
2022-09-17T06:47:15.407Z,6.68
2022-09-17T06:50:01.408Z,6.65
2022-09-17T06:52:50.824Z,7.72
2022-09-17T06:55:35.660Z,7.53
2022-09-17T06:58:20.553Z,7.82
2022-09-17T07:01:05.646Z,7.15
2022-09-17T07:03:50.754Z,7.35
2022-09-17T07:06:35.354Z,7.20
2022-09-17T07:09:20.389Z,5.72
2022-09-17T07:12:08.929Z,5.78
2022-09-17T07:14:53.836Z,6.28
2022-09-17T07:17:39.600Z,5.85
2022-09-17T07:20:25.228Z,5.47
2022-09-17T07:23:10.301Z,5.47
2022-09-17T07:25:57.512Z,5.40
2022-09-17T07:28:43.433Z,5.95
2022-09-17T07:31:28.246Z,6.22
2022-09-17T07:34:13.150Z,6.05
2022-09-17T07:36:58.168Z,5.90
2022-09-17T07:39:43.527Z,6.03
2022-09-17T07:42:28.657Z,5.70
2022-09-17T07:45:13.703Z,5.63
2022-09-17T07:47:58.554Z,5.70
2022-09-17T07:50:43.764Z,5.82
2022-09-17T07:53:28.731Z,6.10
2022-09-17T07:56:13.851Z,6.10
2022-09-17T07:58:58.716Z,5.32
2022-09-17T08:01:43.594Z,4.95
2022-09-17T08:04:28.468Z,6.00
2022-09-17T08:07:13.495Z,5.63
2022-09-17T08:09:58.510Z,5.00
2022-09-17T08:12:43.420Z,5.53
2022-09-17T08:15:28.587Z,5.93
2022-09-17T08:18:16.562Z,5.25
2022-09-17T08:21:03.548Z,5.38
2022-09-17T08:23:48.733Z,5.38
2022-09-17T08:26:33.379Z,6.25
2022-09-17T08:29:18.530Z,5.82
2022-09-17T08:32:03.337Z,5.03
2022-09-17T08:34:48.635Z,5.30
2022-09-17T08:37:33.302Z,5.07
2022-09-17T08:40:22.557Z,5.63
2022-09-17T08:43:12.353Z,5.50
2022-09-17T08:45:58.917Z,5.47
2022-09-17T08:48:55.761Z,5.70
2022-09-17T08:55:14.601Z,5.10
2022-09-17T08:58:02.542Z,5.18
2022-09-17T09:01:02.566Z,5.57
2022-09-17T09:04:12.724Z,5.82
2022-09-17T09:07:11.902Z,4.82
2022-09-17T09:10:03.756Z,4.85
2022-09-17T09:12:51.840Z,5.15
2022-09-17T09:15:40.142Z,5.35
2022-09-17T09:18:28.785Z,4.85
2022-09-17T09:21:22.703Z,4.72
2022-09-17T09:24:23.814Z,6.15
2022-09-17T09:27:27.389Z,6.40
2022-09-17T09:30:14.975Z,5.78
2022-09-17T09:33:14.700Z,5.40
2022-09-17T09:35:59.752Z,5.40
2022-09-17T09:39:06.635Z,6.20
2022-09-17T09:42:10.090Z,5.78
2022-09-17T09:45:07.517Z,5.30
2022-09-17T09:48:08.221Z,5.18
2022-09-17T09:51:16.320Z,5.90
2022-09-17T09:54:36.332Z,5.50
2022-09-17T09:57:34.593Z,5.20
2022-09-17T10:00:26.256Z,5.20
2022-09-17T10:03:23.419Z,6.13
2022-09-17T10:06:10.303Z,5.50
2022-09-17T10:08:55.095Z,5.03
2022-09-17T10:11:40.283Z,5.07
2022-09-17T10:14:27.709Z,5.43
2022-09-17T10:17:17.388Z,5.65
2022-09-17T10:20:04.554Z,5.88
2022-09-17T10:22:49.833Z,5.75
2022-09-17T10:25:34.963Z,6.15
2022-09-17T10:28:38.284Z,5.63
2022-09-17T10:31:23.882Z,5.30
2022-09-17T10:34:19.763Z,4.72
2022-09-17T10:37:04.501Z,4.40
2022-09-17T10:39:49.537Z,3.80
2022-09-17T10:42:34.375Z,5.63
2022-09-17T10:45:30.577Z,4.88
2022-09-17T10:48:19.865Z,4.85
2022-09-17T10:51:06.198Z,3.70
2022-09-17T10:54:29.463Z,3.60
2022-09-17T10:57:31.387Z,3.22
2022-09-17T11:00:22.572Z,3.38
2022-09-17T11:03:29.506Z,3.20
2022-09-17T11:06:17.434Z,3.38
2022-09-17T11:09:34.642Z,3.00
2022-09-17T11:12:34.715Z,2.80
2022-09-17T11:15:41.201Z,2.60
2022-09-17T11:18:57.969Z,2.13
2022-09-17T11:21:49.128Z,1.85
2022-09-17T11:24:55.322Z,2.00
2022-09-17T11:28:04.990Z,2.10
2022-09-17T11:31:24.100Z,1.83
2022-09-17T11:34:44.481Z,2.00
2022-09-17T11:37:38.172Z,1.75
2022-09-17T11:40:47.967Z,1.65
2022-09-17T11:43:35.618Z,1.92
2022-09-17T11:46:49.822Z,2.08
2022-09-17T11:49:53.380Z,1.88
2022-09-17T11:52:48.229Z,1.98
2022-09-17T11:55:39.029Z,1.73
2022-09-17T11:58:44.067Z,1.65
2022-09-17T12:01:48.605Z,1.70
2022-09-17T12:04:45.149Z,1.73
2022-09-17T12:07:33.267Z,2.00
2022-09-17T12:10:42.639Z,1.70
2022-09-17T12:13:47.857Z,1.92
2022-09-17T12:16:44.456Z,2.10
2022-09-17T12:19:41.805Z,1.95
2022-09-17T12:22:36.023Z,1.88
2022-09-17T12:25:29.442Z,1.63
2022-09-17T12:28:38.594Z,1.80
2022-09-17T12:31:52.532Z,3.38
2022-09-17T12:35:08.389Z,2.65
2022-09-17T12:38:10.569Z,1.83
2022-09-17T12:41:13.292Z,1.80
2022-09-17T12:44:16.423Z,1.63
2022-09-17T12:47:25.965Z,1.70
2022-09-17T12:50:36.794Z,1.42
2022-09-17T12:53:40.899Z,1.60
2022-09-17T12:56:43.752Z,1.90
2022-09-17T12:59:35.497Z,1.70
2022-09-17T13:02:23.624Z,1.52
2022-09-17T13:05:39.163Z,1.70
2022-09-17T13:09:01.251Z,1.60
2022-09-17T13:12:08.325Z,1.70
2022-09-17T13:14:53.061Z,1.63
2022-09-17T13:18:12.447Z,2.03
2022-09-17T13:21:14.478Z,2.03
2022-09-17T13:23:59.222Z,1.73
2022-09-17T13:26:47.796Z,1.73
2022-09-17T13:29:45.441Z,2.50
2022-09-17T13:32:35.813Z,2.03
2022-09-17T13:35:20.643Z,2.33
2022-09-17T13:38:05.901Z,2.05
2022-09-17T13:40:51.508Z,2.30
2022-09-17T13:43:46.059Z,2.30
2022-09-17T13:46:33.705Z,2.30
2022-09-17T13:49:18.864Z,2.17
2022-09-17T13:52:05.564Z,2.05
2022-09-17T13:54:52.807Z,2.40
2022-09-17T13:57:49.867Z,2.13
2022-09-17T14:01:00.055Z,2.22
2022-09-17T14:03:44.717Z,2.35
2022-09-17T14:06:33.347Z,2.53
2022-09-17T14:09:36.006Z,2.40
2022-09-17T14:12:47.004Z,2.22
2022-09-17T14:15:41.225Z,2.50
2022-09-17T14:18:26.305Z,2.90
2022-09-17T14:21:18.362Z,2.60
2022-09-17T14:24:19.608Z,2.85
2022-09-17T14:27:10.150Z,2.92
2022-09-17T14:30:10.142Z,2.50
2022-09-17T14:32:58.820Z,2.70
2022-09-17T14:35:46.480Z,2.90
2022-09-17T14:38:44.064Z,2.63
2022-09-17T14:41:34.946Z,2.40
2022-09-17T14:44:32.552Z,2.50
2022-09-17T14:47:19.868Z,2.42
2022-09-17T14:50:37.183Z,2.45
2022-09-17T14:53:22.009Z,2.50
2022-09-17T14:56:11.107Z,2.80
2022-09-17T14:58:55.953Z,2.53
2022-09-17T15:01:47.177Z,2.20
2022-09-17T15:04:32.231Z,2.47
2022-09-17T15:07:20.473Z,2.60
2022-09-17T15:10:07.736Z,2.70
2022-09-17T15:12:54.554Z,2.72
2022-09-17T15:15:39.451Z,2.83
2022-09-17T15:18:32.230Z,3.10
2022-09-17T15:21:38.979Z,3.13
2022-09-17T15:24:49.786Z,3.03
2022-09-17T15:27:46.867Z,3.22
2022-09-17T15:30:32.433Z,3.63
2022-09-17T15:33:18.751Z,3.35
2022-09-17T15:36:15.846Z,3.50
2022-09-17T15:39:30.494Z,3.72
2022-09-17T15:42:23.831Z,3.30
2022-09-17T15:45:27.296Z,3.10
2022-09-17T15:48:37.532Z,3.80
2022-09-17T15:51:33.668Z,3.60
2022-09-17T15:54:30.704Z,3.92
2022-09-17T15:57:16.517Z,3.72
2022-09-17T16:00:13.240Z,3.70
2022-09-17T16:03:29.618Z,3.72
2022-09-17T16:06:17.552Z,3.83
2022-09-17T16:09:02.865Z,3.85
2022-09-17T16:11:47.604Z,4.00
2022-09-17T16:14:32.454Z,4.43
2022-09-17T16:17:32.523Z,4.90
2022-09-17T16:20:17.186Z,4.43
2022-09-17T16:23:02.090Z,5.13
2022-09-17T16:25:47.428Z,5.28
2022-09-17T16:28:33.260Z,4.43
2022-09-17T16:31:18.343Z,5.40
2022-09-17T16:34:03.083Z,7.28
2022-09-17T16:36:50.000Z,14.43
2022-09-17T16:39:35.161Z,15.65
2022-09-17T16:42:20.140Z,13.65
2022-09-17T16:45:06.763Z,11.77
2022-09-17T16:47:51.701Z,10.48
2022-09-17T16:50:40.673Z,11.07
2022-09-17T16:53:25.408Z,11.40
2022-09-17T16:56:12.703Z,10.98
2022-09-17T16:58:57.985Z,11.65
2022-09-17T17:01:43.097Z,12.85
2022-09-17T17:04:28.376Z,11.52
2022-09-17T17:07:13.595Z,11.05
2022-09-17T17:10:01.463Z,12.68
2022-09-17T17:12:46.584Z,12.63
2022-09-17T17:15:31.629Z,13.40
2022-09-17T17:18:20.211Z,13.93
2022-09-17T17:21:10.159Z,13.27
2022-09-17T17:23:55.015Z,12.45
2022-09-17T17:26:39.905Z,13.82
2022-09-17T17:29:24.983Z,13.13
2022-09-17T17:32:09.873Z,13.90
2022-09-17T17:34:54.693Z,15.43
2022-09-17T17:37:39.718Z,16.25
2022-09-17T17:40:26.046Z,17.48
2022-09-17T17:43:11.511Z,19.00
2022-09-17T17:45:56.238Z,20.00
2022-09-17T17:48:43.106Z,23.50
2022-09-17T17:51:27.783Z,24.15
2022-09-17T17:54:12.608Z,23.42
2022-09-17T17:56:57.652Z,25.35
2022-09-17T17:59:42.470Z,25.90
2022-09-17T18:02:27.509Z,25.52
2022-09-17T18:05:12.538Z,25.75
2022-09-17T18:07:57.445Z,23.02
2022-09-17T18:10:50.130Z,25.33
2022-09-17T18:13:36.329Z,24.17
2022-09-17T18:16:21.714Z,21.98
2022-09-17T18:19:07.072Z,21.70
2022-09-17T18:21:53.914Z,20.05
2022-09-17T18:24:38.575Z,19.33
2022-09-17T18:27:23.624Z,19.95
2022-09-17T18:30:09.419Z,18.05
2022-09-17T18:32:54.176Z,15.75
2022-09-17T18:35:39.153Z,16.92
2022-09-17T18:38:24.110Z,15.80
2022-09-17T18:41:11.747Z,15.38
2022-09-17T18:43:57.023Z,14.00
2022-09-17T18:46:42.381Z,13.73
2022-09-17T18:49:27.205Z,13.75
2022-09-17T18:52:12.092Z,15.80
2022-09-17T18:54:56.847Z,15.32
2022-09-17T18:57:41.764Z,18.13
2022-09-17T19:00:26.909Z,23.48
2022-09-17T19:03:11.761Z,24.65
2022-09-17T19:05:59.691Z,26.08
2022-09-17T19:08:44.870Z,24.83
2022-09-17T19:11:29.912Z,22.60
2022-09-17T19:14:14.810Z,21.80
2022-09-17T19:16:59.461Z,21.75
2022-09-17T19:19:44.397Z,21.60
2022-09-17T19:22:29.434Z,20.20
2022-09-17T19:25:14.788Z,18.60
2022-09-17T19:27:59.359Z,17.67
2022-09-17T19:30:44.272Z,17.25
2022-09-17T19:33:29.115Z,18.40
2022-09-17T19:36:16.675Z,17.33
2022-09-17T19:39:01.684Z,17.70
2022-09-17T19:41:46.583Z,16.67
2022-09-17T19:44:31.782Z,16.42
2022-09-17T19:47:16.658Z,15.68
2022-09-17T19:50:01.745Z,14.35
2022-09-17T19:52:46.808Z,13.52
2022-09-17T19:55:31.753Z,13.15
2022-09-17T19:58:16.748Z,12.50
2022-09-17T20:01:01.652Z,11.50
2022-09-17T20:03:47.412Z,12.02
2022-09-17T20:06:33.970Z,11.10
2022-09-17T20:09:19.106Z,11.32
2022-09-17T20:12:03.787Z,10.57
2022-09-17T20:14:48.645Z,10.73
2022-09-17T20:17:33.568Z,10.20
2022-09-17T20:20:18.603Z,10.05
2022-09-17T20:23:03.701Z,10.02
2022-09-17T20:25:52.814Z,10.40
2022-09-17T20:28:38.061Z,11.05
2022-09-17T20:31:25.564Z,11.13
2022-09-17T20:34:11.650Z,11.20
2022-09-17T20:37:12.253Z,10.63
2022-09-17T20:39:57.620Z,10.85
2022-09-17T20:42:42.628Z,11.45
2022-09-17T20:45:27.561Z,10.95
2022-09-17T20:48:12.419Z,10.18
2022-09-17T20:51:03.322Z,12.02
2022-09-17T20:53:48.256Z,11.70
2022-09-17T20:56:33.992Z,11.57
2022-09-17T20:59:19.333Z,12.38
2022-09-17T21:02:04.303Z,11.60
2022-09-17T21:04:49.727Z,11.13
2022-09-17T21:07:34.307Z,11.35
2022-09-17T21:10:19.106Z,11.20
2022-09-17T21:13:04.251Z,12.15
2022-09-17T21:16:00.167Z,11.00
2022-09-17T21:18:45.182Z,10.75
2022-09-17T21:21:33.689Z,10.20
2022-09-17T21:24:18.704Z,9.95
2022-09-17T21:27:04.014Z,10.27
2022-09-17T21:29:48.858Z,10.73
2022-09-17T21:32:35.566Z,11.02
2022-09-17T21:35:20.633Z,11.15
2022-09-17T21:38:05.647Z,10.20
2022-09-17T21:40:57.927Z,11.10
2022-09-17T21:43:43.169Z,11.90
2022-09-17T21:46:32.773Z,11.93
2022-09-17T21:49:17.853Z,12.00
2022-09-17T21:52:03.019Z,11.25
2022-09-17T21:54:47.782Z,11.60
2022-09-17T21:57:32.936Z,11.60
2022-09-17T22:00:22.618Z,11.75
2022-09-17T22:05:54.169Z,11.98
2022-09-17T22:08:39.751Z,11.43
2022-09-17T22:11:28.883Z,11.68
2022-09-17T22:14:19.037Z,10.57
2022-09-17T22:17:03.818Z,10.15
2022-09-17T22:19:48.434Z,11.10
2022-09-17T22:22:33.625Z,10.77
2022-09-17T22:25:18.402Z,10.23
2022-09-17T22:28:20.416Z,10.10
2022-09-17T22:31:09.014Z,9.82
2022-09-17T22:33:53.904Z,9.38
2022-09-17T22:36:39.019Z,9.43
2022-09-17T22:39:23.826Z,9.70
2022-09-17T22:42:08.747Z,9.45
2022-09-17T22:44:53.864Z,9.80
2022-09-17T22:47:41.903Z,9.10
2022-09-17T22:50:26.958Z,9.25
2022-09-17T22:53:11.805Z,9.32
2022-09-17T22:55:57.294Z,9.25
2022-09-17T22:58:43.045Z,9.05
2022-09-17T23:01:30.597Z,9.63
2022-09-17T23:04:15.400Z,9.63
2022-09-17T23:07:00.106Z,9.95
2022-09-17T23:09:45.098Z,8.90
2022-09-17T23:12:29.979Z,9.63
2022-09-17T23:15:14.993Z,9.60
2022-09-17T23:18:00.470Z,9.73
2022-09-17T23:20:58.776Z,9.90
2022-09-17T23:23:46.907Z,9.65
2022-09-17T23:26:31.819Z,10.00
2022-09-17T23:29:16.708Z,10.10
2022-09-17T23:32:01.749Z,11.05
2022-09-17T23:34:46.636Z,10.85
2022-09-17T23:37:31.775Z,10.73
2022-09-17T23:40:37.294Z,11.18
2022-09-17T23:43:22.133Z,11.48
2022-09-17T23:46:07.671Z,10.82
2022-09-17T23:48:52.958Z,11.82
2022-09-17T23:51:37.791Z,12.43
2022-09-17T23:54:22.655Z,12.38
2022-09-17T23:57:07.580Z,12.20
2022-09-17T23:59:52.547Z,13.65
